Dalton, WI (53926)

5:16 AM CST on February 08, 2016 (GMT -0600)
APRSWXNET | | Change Station
CLOSE
Current Station
Personal Weather Station
Location: Cambria, WI
Elevation: 944 ft
Nearby Weather Stations

Elev 944 ft 43.54 °N, 89.11 °W | Updated 16 minutes ago

Overcast
Overcast
28 °F
Feels Like 21 °F
N
6
Wind Variable Wind from WNW
Gusts 11.0 mph

Today
High -- | Low -- °F
--% Chance of Precip.
Yesterday
High -- | Low -- °F
Precip. -- in
Pressure 29.62 in
Visibility 10.0 miles
Clouds Mostly Cloudy 1800 ft
Overcast 2300 ft
Windchill 21 °F
Dew Point 23 °F
Humidity 81%
Rainfall in
Snow Depth Not available.
7:05 AM 5:16 PM
Waning Crescent, 0% visible
METAR KY50 081056Z AUTO 32008KT 10SM BKN018 OVC023 M03/M06 A2960 RMK AO2 TSNO T10331061 OVC V BKN SLP030
Pressure 29.62 in
Visibility 10.0 miles
Clouds Mostly Cloudy 1800 ft
Overcast 2300 ft
Windchill 21 °F
Dew Point 23 °F
Humidity 81%
Rainfall in
Snow Depth Not available.
7:05 AM 5:16 PM
Waning Crescent, 0% visible
METAR KY50 081056Z AUTO 32008KT 10SM BKN018 OVC023 M03/M06 A2960 RMK AO2 TSNO T10331061 OVC V BKN SLP030

10-Day Weather Forecast

Almanac

Astronomy

Feb. 08, 2016 Rise Set
Actual Time
Civil Twilight
Nautical Twilight
Astronomical Twilight
Moon
Length of Visible Light
Length of Day
Tomorrow will be .
, % of the Moon is Illuminated

Today's Extremes

State Highs State Lows

Community

WunderPhotos

Upload Photos

1,891,420 photos uploaded!

WunderBlog® & News

Nearby

Air Quality

  Air Quality AQ Index Pollutant
Not available.

Snow Depth

Station Depth Elevation

Earthquake Activity

City Distance Mag. Time & Date
Minimum magnitude displayed is 2.5.

Coastal Water Temperatures

Place Temperature

Stations

Nearby Weather Stations

Station Location Temp. Windchill Dew Point Humidity Wind Precip. Elev Updated Type
                   

Watches & Warnings

There are currently no watches in effect.